createdAt,value
2017-11-01T00:01:44.159Z,31.57
2017-11-01T00:04:11.771Z,31.10
2017-11-01T00:06:39.493Z,32.17
2017-11-01T00:09:06.978Z,31.87
2017-11-01T00:11:34.459Z,32.67
2017-11-01T00:14:02.370Z,33.50
2017-11-01T00:16:30.011Z,31.27
2017-11-01T00:18:57.871Z,33.80
2017-11-01T00:21:25.336Z,34.60
2017-11-01T00:23:52.803Z,34.57
2017-11-01T00:26:20.254Z,36.07
2017-11-01T00:28:47.719Z,35.40
2017-11-01T00:31:15.186Z,35.37
2017-11-01T00:33:42.643Z,37.33
2017-11-01T00:36:10.114Z,38.03
2017-11-01T00:38:37.570Z,35.30
2017-11-01T00:41:05.028Z,35.50
2017-11-01T00:43:32.486Z,35.40
2017-11-01T00:45:59.944Z,34.83
2017-11-01T00:48:27.402Z,32.63
2017-11-01T00:50:55.622Z,35.63
2017-11-01T00:53:23.089Z,36.40
2017-11-01T00:55:50.545Z,37.87
2017-11-01T00:58:18.005Z,38.37
2017-11-01T01:00:45.462Z,34.50
2017-11-01T01:03:12.927Z,35.90
2017-11-01T01:05:40.389Z,35.60
2017-11-01T01:08:07.854Z,37.80
2017-11-01T01:10:35.310Z,36.30
2017-11-01T01:13:03.550Z,35.97
2017-11-01T01:15:31.767Z,35.33
2017-11-01T01:17:59.220Z,38.03
2017-11-01T01:20:26.674Z,37.87
2017-11-01T01:22:54.134Z,39.63
2017-11-01T01:25:21.599Z,37.47
2017-11-01T01:27:49.050Z,38.57
2017-11-01T01:30:17.277Z,37.97
2017-11-01T01:32:45.493Z,40.63
2017-11-01T01:35:12.962Z,39.67
2017-11-01T01:37:40.414Z,38.37
2017-11-01T01:40:07.870Z,38.70
2017-11-01T01:42:36.092Z,39.33
2017-11-01T01:45:04.321Z,40.13
2017-11-01T01:47:31.778Z,41.23
2017-11-01T01:49:59.294Z,38.93
2017-11-01T01:52:26.746Z,38.73
2017-11-01T01:54:54.977Z,37.27
2017-11-01T01:57:22.433Z,38.30
2017-11-01T01:59:49.906Z,36.57
2017-11-01T02:02:17.363Z,36.33
2017-11-01T02:04:44.810Z,39.77
2017-11-01T02:07:12.278Z,38.10
2017-11-01T02:09:39.723Z,37.37
2017-11-01T02:12:07.178Z,34.70
2017-11-01T02:14:35.432Z,37.70
2017-11-01T02:17:02.886Z,36.10
2017-11-01T02:19:30.341Z,35.70
2017-11-01T02:21:57.814Z,37.27
2017-11-01T02:24:25.266Z,34.63
2017-11-01T02:26:52.726Z,37.70
2017-11-01T02:29:20.183Z,37.10
2017-11-01T02:31:48.405Z,37.23
2017-11-01T02:34:16.657Z,39.17
2017-11-01T02:36:44.122Z,37.03
2017-11-01T02:39:11.577Z,36.93
2017-11-01T02:41:39.040Z,39.03
2017-11-01T02:44:06.501Z,36.97
2017-11-01T02:46:33.962Z,36.50
2017-11-01T02:49:02.192Z,37.57
2017-11-01T02:51:29.664Z,36.60
2017-11-01T02:53:57.105Z,37.27
2017-11-01T02:56:24.585Z,37.43
2017-11-01T02:58:52.034Z,37.67
2017-11-01T03:01:19.498Z,39.77
2017-11-01T03:03:47.735Z,38.77
2017-11-01T03:06:15.192Z,37.77
2017-11-01T03:08:42.647Z,40.60
2017-11-01T03:11:10.102Z,38.70
2017-11-01T03:13:37.557Z,37.47
2017-11-01T03:16:05.024Z,38.77
2017-11-01T03:18:32.482Z,39.93
2017-11-01T03:20:59.946Z,39.87
2017-11-01T03:23:27.445Z,38.50
2017-11-01T03:25:56.397Z,39.23
2017-11-01T03:28:23.889Z,38.83
2017-11-01T03:30:52.163Z,37.70
2017-11-01T03:33:19.606Z,40.30
2017-11-01T03:35:47.071Z,38.13
2017-11-01T03:38:14.527Z,40.37
2017-11-01T03:40:41.978Z,38.90
2017-11-01T03:43:09.433Z,39.37
2017-11-01T03:45:36.893Z,39.23
2017-11-01T03:48:04.340Z,40.93
2017-11-01T03:50:32.566Z,37.83
2017-11-01T03:53:00.013Z,40.63
2017-11-01T03:55:28.242Z,38.00
2017-11-01T03:57:55.702Z,38.10
2017-11-01T04:00:23.162Z,38.97
2017-11-01T04:02:50.637Z,37.93
2017-11-01T04:05:18.101Z,39.00
2017-11-01T04:07:45.559Z,40.70
2017-11-01T04:10:13.030Z,40.97
2017-11-01T04:12:40.490Z,40.50
2017-11-01T04:15:07.958Z,37.80
2017-11-01T04:17:36.175Z,39.73
2017-11-01T04:20:03.631Z,37.97
2017-11-01T04:22:31.115Z,38.70
2017-11-01T04:24:58.590Z,40.80
2017-11-01T04:27:26.042Z,38.53
2017-11-01T04:29:53.510Z,37.97
2017-11-01T04:32:20.971Z,38.20
2017-11-01T04:34:49.227Z,38.23
2017-11-01T04:37:16.677Z,36.77
2017-11-01T04:39:44.925Z,35.83
2017-11-01T04:42:12.388Z,35.47
2017-11-01T04:44:39.843Z,34.67
2017-11-01T04:47:07.306Z,34.60
2017-11-01T04:49:37.521Z,34.70
2017-11-01T04:52:07.902Z,36.33
2017-11-01T04:54:35.354Z,33.30
2017-11-01T04:57:04.399Z,18.63
2017-11-01T04:59:31.854Z,8.97
2017-11-01T05:02:01.201Z,9.03
2017-11-01T05:04:28.656Z,8.90
2017-11-01T05:06:56.104Z,6.63
2017-11-01T05:09:26.325Z,8.10
2017-11-01T05:11:53.803Z,7.40
2017-11-01T05:14:22.033Z,6.93
2017-11-01T05:16:52.274Z,6.80
2017-11-01T05:19:19.733Z,6.73
2017-11-01T05:21:47.191Z,5.27
2017-11-01T05:24:14.638Z,5.23
2017-11-01T05:26:42.854Z,5.40
2017-11-01T05:29:11.087Z,4.93
2017-11-01T05:31:38.555Z,4.90
2017-11-01T05:34:06.778Z,4.77
2017-11-01T05:36:34.226Z,5.63
2017-11-01T05:39:01.681Z,5.30
2017-11-01T05:41:29.906Z,5.63
2017-11-01T05:43:58.142Z,4.67
2017-11-01T05:46:26.350Z,4.87
2017-11-01T05:48:53.818Z,5.10
2017-11-01T05:51:21.390Z,4.40
2017-11-01T05:53:49.606Z,4.67
2017-11-01T05:56:17.070Z,4.97
2017-11-01T05:58:44.522Z,4.70
2017-11-01T06:01:11.974Z,5.00
2017-11-01T06:03:40.197Z,4.30
2017-11-01T06:06:07.660Z,4.30
2017-11-01T06:08:35.143Z,4.87
2017-11-01T06:11:02.591Z,4.00
2017-11-01T06:13:30.052Z,5.27
2017-11-01T06:15:58.287Z,4.77
2017-11-01T06:18:25.738Z,4.67
2017-11-01T06:20:53.198Z,4.60
2017-11-01T06:23:20.654Z,4.60
2017-11-01T06:25:48.883Z,4.63
2017-11-01T06:28:17.107Z,4.27
2017-11-01T06:30:44.565Z,4.37
2017-11-01T06:33:12.022Z,4.30
2017-11-01T06:35:39.477Z,4.57
2017-11-01T06:38:06.933Z,4.40
2017-11-01T06:40:34.403Z,4.07
2017-11-01T06:43:01.849Z,4.20
2017-11-01T06:45:29.522Z,5.07
2017-11-01T06:47:56.986Z,4.20
2017-11-01T06:50:24.559Z,3.83
2017-11-01T06:52:52.018Z,4.07
2017-11-01T06:55:19.462Z,3.93
2017-11-01T06:57:46.914Z,4.77
2017-11-01T07:00:14.372Z,4.30
2017-11-01T07:02:43.634Z,3.50
2017-11-01T07:05:13.523Z,4.50
2017-11-01T07:07:41.746Z,3.80
2017-11-01T07:10:09.213Z,4.30
2017-11-01T07:12:37.430Z,4.37
2017-11-01T07:15:04.878Z,4.50
2017-11-01T07:17:32.334Z,4.23
2017-11-01T07:19:59.785Z,4.20
2017-11-01T07:22:27.242Z,4.97
2017-11-01T07:24:54.690Z,4.43
2017-11-01T07:27:22.150Z,3.77
2017-11-01T07:29:49.610Z,4.00
2017-11-01T07:32:17.063Z,4.10
2017-11-01T07:34:44.515Z,4.47
2017-11-01T07:37:11.978Z,4.03
2017-11-01T07:39:39.433Z,4.13
2017-11-01T07:42:06.869Z,4.13
2017-11-01T07:44:34.342Z,4.87
2017-11-01T07:47:01.806Z,3.83
2017-11-01T07:49:30.087Z,4.23
2017-11-01T07:51:57.542Z,4.30
2017-11-01T07:54:25.886Z,4.57
2017-11-01T07:56:53.335Z,4.13
2017-11-01T07:59:21.555Z,4.43
2017-11-01T08:01:49.004Z,4.50
2017-11-01T08:04:16.457Z,4.90
2017-11-01T08:06:43.906Z,5.10
2017-11-01T08:09:11.366Z,5.60
2017-11-01T08:11:39.579Z,5.90
2017-11-01T08:14:07.029Z,6.07
2017-11-01T08:16:34.475Z,6.40
2017-11-01T08:19:01.951Z,6.47
2017-11-01T08:21:30.170Z,7.57
2017-11-01T08:23:57.627Z,6.70
2017-11-01T08:26:25.096Z,6.67
2017-11-01T08:28:52.557Z,6.03
2017-11-01T08:31:20.018Z,6.10
2017-11-01T08:33:47.498Z,6.60
2017-11-01T08:36:14.964Z,5.47
2017-11-01T08:38:42.446Z,6.17
2017-11-01T08:41:10.663Z,5.47
2017-11-01T08:43:38.154Z,5.60
2017-11-01T08:46:06.390Z,6.30
2017-11-01T08:48:33.931Z,6.23
2017-11-01T08:51:02.153Z,6.00
2017-11-01T08:53:29.613Z,6.00
2017-11-01T08:55:57.869Z,5.40
2017-11-01T08:58:26.095Z,6.73
2017-11-01T09:00:54.305Z,6.00
2017-11-01T09:03:22.534Z,6.13
2017-11-01T09:05:50.002Z,6.40
2017-11-01T09:08:17.462Z,5.87
2017-11-01T09:10:45.678Z,5.70
2017-11-01T09:13:13.143Z,5.70
2017-11-01T09:15:40.586Z,6.00
2017-11-01T09:18:08.822Z,5.63
2017-11-01T09:20:37.038Z,5.60
2017-11-01T09:23:04.495Z,5.87
2017-11-01T09:25:31.950Z,5.43
2017-11-01T09:28:00.179Z,5.73
2017-11-01T09:30:28.396Z,5.90
2017-11-01T09:32:55.854Z,5.60
2017-11-01T09:35:23.305Z,5.53
2017-11-01T09:37:50.765Z,5.33
2017-11-01T09:40:18.978Z,5.20
2017-11-01T09:42:46.431Z,5.93
2017-11-01T09:45:14.671Z,5.97
2017-11-01T09:47:42.131Z,5.70
2017-11-01T09:50:10.366Z,5.90
2017-11-01T09:52:38.651Z,5.20
2017-11-01T09:55:06.874Z,5.80
2017-11-01T09:57:35.098Z,5.70
2017-11-01T10:00:03.326Z,6.10
2017-11-01T10:02:31.939Z,5.30
2017-11-01T10:04:59.396Z,4.67
2017-11-01T10:07:26.863Z,4.80
2017-11-01T10:09:55.082Z,5.00
2017-11-01T10:12:22.537Z,5.50
2017-11-01T10:14:50.010Z,5.97
2017-11-01T10:17:17.458Z,5.20
2017-11-01T10:19:46.502Z,5.47
2017-11-01T10:22:14.727Z,5.57
2017-11-01T10:24:42.183Z,5.80
2017-11-01T10:27:09.649Z,6.17
2017-11-01T10:29:37.867Z,5.60
2017-11-01T10:32:06.099Z,5.17
2017-11-01T10:34:33.542Z,5.00
2017-11-01T10:37:00.990Z,5.60
2017-11-01T10:39:28.985Z,5.40
2017-11-01T10:41:56.443Z,5.10
2017-11-01T10:44:23.906Z,5.20
2017-11-01T10:46:51.373Z,5.07
2017-11-01T10:49:18.830Z,5.40
2017-11-01T10:51:46.294Z,5.73
2017-11-01T10:54:13.734Z,5.40
2017-11-01T10:56:41.189Z,5.10
2017-11-01T10:59:08.636Z,5.10
2017-11-01T11:01:36.108Z,5.60
2017-11-01T11:04:03.559Z,5.20
2017-11-01T11:06:31.012Z,4.80
2017-11-01T11:08:58.470Z,4.77
2017-11-01T11:11:25.925Z,4.90
2017-11-01T11:13:53.374Z,4.67
2017-11-01T11:16:20.822Z,4.97
2017-11-01T11:18:48.286Z,5.43
2017-11-01T11:21:16.500Z,5.20
2017-11-01T11:23:43.958Z,4.90
2017-11-01T11:26:11.410Z,4.80
2017-11-01T11:28:38.883Z,4.40
2017-11-01T11:31:06.334Z,4.70
2017-11-01T11:33:33.811Z,5.60
2017-11-01T11:36:02.027Z,4.93
2017-11-01T11:38:29.487Z,5.20
2017-11-01T11:40:57.715Z,4.97
2017-11-01T11:43:25.173Z,5.10
2017-11-01T11:45:53.384Z,4.80
2017-11-01T11:48:20.842Z,5.30
2017-11-01T11:50:48.295Z,5.20
2017-11-01T11:53:15.762Z,6.00
2017-11-01T11:55:43.228Z,5.13
2017-11-01T11:58:11.442Z,5.20
2017-11-01T12:00:38.903Z,5.10
2017-11-01T12:03:07.134Z,5.13
2017-11-01T12:05:34.595Z,5.20
2017-11-01T12:08:02.056Z,5.10
2017-11-01T12:10:29.510Z,5.13
2017-11-01T12:12:56.964Z,5.77
2017-11-01T12:15:24.426Z,5.17
2017-11-01T12:17:51.877Z,5.53
2017-11-01T12:20:19.334Z,5.33
2017-11-01T12:22:46.813Z,5.13
2017-11-01T12:25:14.299Z,6.10
2017-11-01T12:27:41.742Z,4.63
2017-11-01T12:30:09.954Z,5.13
2017-11-01T12:32:37.432Z,5.83
2017-11-01T12:35:05.663Z,5.40
2017-11-01T12:37:33.889Z,6.20
2017-11-01T12:40:01.350Z,5.40
2017-11-01T12:42:28.806Z,5.20
2017-11-01T12:44:56.268Z,5.20
2017-11-01T12:47:23.732Z,5.43
2017-11-01T12:49:51.185Z,5.30
2017-11-01T12:52:19.415Z,5.57
2017-11-01T12:54:47.630Z,5.70
2017-11-01T12:57:15.858Z,5.60
2017-11-01T12:59:44.082Z,5.47
2017-11-01T13:02:11.546Z,5.10
2017-11-01T13:04:38.995Z,5.53
2017-11-01T13:07:06.466Z,5.40
2017-11-01T13:09:33.919Z,6.00
2017-11-01T13:12:01.374Z,5.80
2017-11-01T13:14:28.830Z,5.73
2017-11-01T13:16:56.280Z,4.53
2017-11-01T13:19:23.747Z,5.20
2017-11-01T13:21:51.193Z,5.60
2017-11-01T13:24:18.651Z,5.23
2017-11-01T13:26:46.866Z,5.60
2017-11-01T13:29:15.095Z,5.50
2017-11-01T13:31:42.550Z,5.57
2017-11-01T13:34:10.010Z,5.53
2017-11-01T13:36:37.463Z,5.90
2017-11-01T13:39:04.931Z,5.67
2017-11-01T13:41:32.394Z,5.47
2017-11-01T13:44:00.608Z,5.67
2017-11-01T13:46:28.062Z,5.50
2017-11-01T13:48:56.281Z,6.17
2017-11-01T13:51:23.737Z,6.00
2017-11-01T13:53:51.207Z,5.50
2017-11-01T13:56:18.657Z,5.60
2017-11-01T13:58:46.148Z,5.20
2017-11-01T14:01:13.588Z,5.17
2017-11-01T14:03:41.806Z,5.47
2017-11-01T14:06:10.026Z,5.47
2017-11-01T14:08:37.483Z,5.43
2017-11-01T14:11:04.938Z,5.30
2017-11-01T14:13:33.146Z,5.50
2017-11-01T14:16:01.371Z,5.60
2017-11-01T14:18:28.823Z,6.07
2017-11-01T14:20:56.283Z,5.50
2017-11-01T14:23:23.734Z,5.93
2017-11-01T14:25:51.211Z,5.60
2017-11-01T14:28:18.665Z,6.07
2017-11-01T14:30:46.129Z,5.63
2017-11-01T14:33:13.582Z,5.77
2017-11-01T14:35:41.807Z,6.70
2017-11-01T14:38:10.034Z,5.90
2017-11-01T14:40:37.491Z,5.90
2017-11-01T14:43:04.946Z,5.63
2017-11-01T14:45:32.414Z,5.83
2017-11-01T14:47:59.861Z,6.00
2017-11-01T14:50:27.324Z,5.53
2017-11-01T14:52:54.779Z,5.90
2017-11-01T14:55:22.247Z,5.87
2017-11-01T14:57:49.702Z,5.90
2017-11-01T15:00:17.923Z,6.33
2017-11-01T15:02:46.145Z,5.90
2017-11-01T15:05:14.370Z,5.93
2017-11-01T15:07:42.591Z,5.80
2017-11-01T15:10:10.062Z,5.77
2017-11-01T15:12:37.515Z,5.93
2017-11-01T15:15:04.962Z,5.90
2017-11-01T15:17:33.185Z,6.43
2017-11-01T15:20:00.634Z,6.17
2017-11-01T15:22:28.090Z,6.00
2017-11-01T15:24:55.533Z,6.17
2017-11-01T15:27:22.990Z,5.50
2017-11-01T15:29:51.200Z,5.67
2017-11-01T15:32:19.430Z,6.00
2017-11-01T15:34:47.649Z,5.40
2017-11-01T15:37:15.877Z,6.30
2017-11-01T15:39:43.334Z,6.63
2017-11-01T15:42:10.790Z,6.03
2017-11-01T15:44:38.239Z,6.13
2017-11-01T15:47:05.696Z,6.70
2017-11-01T15:49:33.151Z,5.93
2017-11-01T15:52:00.604Z,5.97
2017-11-01T15:54:28.818Z,6.50
2017-11-01T15:56:56.278Z,6.10
2017-11-01T15:59:23.721Z,6.67
2017-11-01T16:01:51.958Z,6.60
2017-11-01T16:04:20.172Z,6.67
2017-11-01T16:06:48.415Z,5.50
2017-11-01T16:09:15.863Z,7.23
2017-11-01T16:11:44.075Z,6.37
2017-11-01T16:14:11.531Z,6.80
2017-11-01T16:16:38.983Z,6.40
2017-11-01T16:19:07.210Z,6.33
2017-11-01T16:21:35.429Z,6.67
2017-11-01T16:24:03.649Z,6.70
2017-11-01T16:26:31.099Z,6.60
2017-11-01T16:28:58.559Z,6.33
2017-11-01T16:31:27.506Z,6.90
2017-11-01T16:33:54.966Z,6.70
2017-11-01T16:36:22.421Z,6.17
2017-11-01T16:38:49.886Z,6.30
2017-11-01T16:41:17.332Z,6.50
2017-11-01T16:43:44.790Z,6.53
2017-11-01T16:46:12.250Z,6.00
2017-11-01T16:48:39.703Z,7.33
2017-11-01T16:51:07.188Z,6.90
2017-11-01T16:53:35.406Z,7.37
2017-11-01T16:56:03.622Z,7.03
2017-11-01T16:58:31.085Z,6.30
2017-11-01T17:00:58.526Z,7.27
2017-11-01T17:03:25.987Z,6.80
2017-11-01T17:05:53.435Z,6.63
2017-11-01T17:08:20.898Z,6.93
2017-11-01T17:10:48.351Z,7.17
2017-11-01T17:13:16.578Z,7.07
2017-11-01T17:15:44.035Z,6.97
2017-11-01T17:18:11.488Z,7.27
2017-11-01T17:20:39.702Z,6.87
2017-11-01T17:23:07.165Z,7.50
2017-11-01T17:25:34.607Z,7.27
2017-11-01T17:28:02.096Z,6.70
2017-11-01T17:30:29.545Z,8.07
2017-11-01T17:32:57.027Z,6.33
2017-11-01T17:35:24.487Z,7.40
2017-11-01T17:37:51.925Z,7.07
2017-11-01T17:40:19.372Z,6.97
2017-11-01T17:42:46.815Z,7.37
2017-11-01T17:45:14.276Z,7.23
2017-11-01T17:47:41.722Z,7.37
2017-11-01T17:50:09.179Z,7.20
2017-11-01T17:52:37.383Z,7.43
2017-11-01T17:55:05.616Z,7.10
2017-11-01T17:57:33.069Z,7.80
2017-11-01T18:00:01.301Z,7.33
2017-11-01T18:02:28.751Z,7.37
2017-11-01T18:04:56.218Z,7.40
2017-11-01T18:07:24.440Z,8.13
2017-11-01T18:09:52.664Z,7.87
2017-11-01T18:12:20.120Z,7.33
2017-11-01T18:14:47.585Z,7.83
2017-11-01T18:17:15.042Z,8.17
2017-11-01T18:19:42.519Z,7.53
2017-11-01T18:22:09.954Z,7.93
2017-11-01T18:24:37.433Z,7.83
2017-11-01T18:27:04.891Z,7.93
2017-11-01T18:29:32.346Z,8.03
2017-11-01T18:31:59.803Z,7.70
2017-11-01T18:34:27.257Z,7.77
2017-11-01T18:36:54.713Z,7.87
2017-11-01T18:39:22.161Z,7.40
2017-11-01T18:41:49.618Z,6.60
2017-11-01T18:44:17.074Z,7.70
2017-11-01T18:46:44.534Z,7.93
2017-11-01T18:49:11.984Z,8.17
2017-11-01T18:51:40.203Z,7.70
2017-11-01T18:54:08.427Z,7.53
2017-11-01T18:56:35.880Z,7.30
2017-11-01T18:59:03.335Z,7.60
2017-11-01T19:01:30.798Z,8.67
2017-11-01T19:03:58.247Z,7.73
2017-11-01T19:06:25.706Z,8.33
2017-11-01T19:08:53.250Z,7.93
2017-11-01T19:11:21.478Z,8.07
2017-11-01T19:13:49.690Z,7.40
2017-11-01T19:16:17.170Z,8.20
2017-11-01T19:18:44.628Z,8.50
2017-11-01T19:21:12.084Z,7.83
2017-11-01T19:23:39.539Z,7.40
2017-11-01T19:26:07.007Z,7.73
2017-11-01T19:28:34.474Z,7.17
2017-11-01T19:31:01.922Z,8.57
2017-11-01T19:33:29.390Z,7.37
2017-11-01T19:35:56.841Z,7.50
2017-11-01T19:38:24.291Z,7.00
2017-11-01T19:40:51.750Z,7.60
2017-11-01T19:43:19.211Z,7.60
2017-11-01T19:45:46.658Z,8.00
2017-11-01T19:48:14.111Z,7.30
2017-11-01T19:50:41.570Z,7.30
2017-11-01T19:53:09.032Z,7.63
2017-11-01T19:55:36.481Z,7.90
2017-11-01T19:58:03.945Z,7.37
2017-11-01T20:00:31.418Z,7.67
2017-11-01T20:02:58.870Z,7.73
2017-11-01T20:05:27.087Z,7.30
2017-11-01T20:07:55.420Z,8.07
2017-11-01T20:10:22.875Z,8.10
2017-11-01T20:12:50.330Z,7.37
2017-11-01T20:15:18.538Z,7.00
2017-11-01T20:17:46.058Z,7.70
2017-11-01T20:20:13.522Z,7.93
2017-11-01T20:22:40.973Z,7.10
2017-11-01T20:25:08.426Z,7.53
2017-11-01T20:27:35.879Z,7.17
2017-11-01T20:30:03.327Z,7.50
2017-11-01T20:32:30.782Z,6.90
2017-11-01T20:34:58.237Z,7.20
2017-11-01T20:37:26.453Z,7.90
2017-11-01T20:39:53.906Z,6.40
2017-11-01T20:42:21.357Z,7.00
2017-11-01T20:44:48.810Z,7.17
2017-11-01T20:47:16.255Z,7.00
2017-11-01T20:49:43.715Z,6.97
2017-11-01T20:52:11.193Z,7.10
2017-11-01T20:54:38.646Z,7.07
2017-11-01T20:57:06.101Z,6.73
2017-11-01T20:59:33.563Z,6.73
2017-11-01T21:02:01.006Z,7.23
2017-11-01T21:04:29.235Z,6.90
2017-11-01T21:06:57.458Z,6.50
2017-11-01T21:09:24.909Z,6.80
2017-11-01T21:11:52.370Z,6.43
2017-11-01T21:14:19.841Z,6.53
2017-11-01T21:16:47.287Z,7.40
2017-11-01T21:19:14.742Z,6.87
2017-11-01T21:21:42.271Z,6.90
2017-11-01T21:24:10.553Z,6.53
2017-11-01T21:26:38.078Z,6.20
2017-11-01T21:29:05.527Z,6.27
2017-11-01T21:31:32.989Z,6.63
2017-11-01T21:34:01.207Z,6.40
2017-11-01T21:36:28.646Z,6.30
2017-11-01T21:38:56.118Z,6.63
2017-11-01T21:41:23.568Z,6.23
2017-11-01T21:43:51.791Z,6.83
2017-11-01T21:46:19.234Z,6.53
2017-11-01T21:48:47.458Z,6.60
2017-11-01T21:51:15.670Z,5.80
2017-11-01T21:53:43.139Z,5.70
2017-11-01T21:56:11.346Z,6.87
2017-11-01T21:58:38.790Z,6.67
2017-11-01T22:01:06.252Z,6.20
2017-11-01T22:03:34.463Z,5.57
2017-11-01T22:06:02.690Z,6.50
2017-11-01T22:08:30.142Z,6.47
2017-11-01T22:10:57.595Z,6.63
2017-11-01T22:13:25.042Z,6.13
2017-11-01T22:15:52.497Z,6.10
2017-11-01T22:18:19.953Z,6.37
2017-11-01T22:20:48.170Z,6.73
2017-11-01T22:23:15.610Z,6.73
2017-11-01T22:25:43.061Z,5.83
2017-11-01T22:28:11.276Z,6.87
2017-11-01T22:30:39.510Z,5.77
2017-11-01T22:33:06.957Z,5.60
2017-11-01T22:35:34.413Z,5.30
2017-11-01T22:38:01.870Z,5.80
2017-11-01T22:40:29.322Z,6.23
2017-11-01T22:42:56.783Z,5.97
2017-11-01T22:45:24.238Z,5.57
2017-11-01T22:47:51.691Z,5.70
2017-11-01T22:50:19.134Z,5.77
2017-11-01T22:52:46.581Z,5.77
2017-11-01T22:55:14.031Z,6.20
2017-11-01T22:57:42.250Z,5.97
2017-11-01T23:00:09.700Z,6.13
2017-11-01T23:02:37.150Z,5.77
2017-11-01T23:05:04.594Z,5.73
2017-11-01T23:07:32.814Z,5.70
2017-11-01T23:10:00.267Z,6.00
2017-11-01T23:12:27.719Z,5.40
2017-11-01T23:14:55.158Z,5.63
2017-11-01T23:17:22.613Z,6.10
2017-11-01T23:19:50.071Z,5.60
2017-11-01T23:22:17.545Z,5.30
2017-11-01T23:24:45.003Z,6.00
2017-11-01T23:27:12.450Z,5.43
2017-11-01T23:29:39.917Z,5.97
2017-11-01T23:32:07.358Z,5.80
2017-11-01T23:34:34.812Z,5.30
2017-11-01T23:37:02.295Z,5.03
2017-11-01T23:39:29.736Z,5.20
2017-11-01T23:41:57.183Z,5.80
2017-11-01T23:44:24.643Z,5.07
2017-11-01T23:46:52.854Z,5.30
2017-11-01T23:49:20.325Z,5.70
2017-11-01T23:51:48.545Z,5.00
2017-11-01T23:54:15.994Z,5.37
2017-11-01T23:56:43.442Z,5.10
2017-11-01T23:59:10.897Z,5.47
